Time;durP1;ratioP1;P1;durP2;ratioP2;P2;SDS_P1;SDS_P2;PMS_P1;PMS_P2;Temp;Humidity;BMP_temperature;BMP_pressure;BME280_temperature;BME280_humidity;BME280_pressure;Samples;Min_cycle;Max_cycle;Signal;HPM_P1;HPM_P2
2023/12/30 00:02:07;;;;;;;4.20;4.00;;;;;;;;;;6385117;27;20538;-67
2023/12/30 00:05:11;;;;;;;4.53;3.57;;;;;;;;;;6385166;27;20280;-66
2023/12/30 00:08:16;;;;;;;4.33;3.97;;;;;;;;;;6380809;27;20288;-66
2023/12/30 00:11:19;;;;;;;4.10;3.90;;;;;;;;;;6383787;27;20280;-66
2023/12/30 00:14:23;;;;;;;3.50;3.20;;;;;;;;;;6410755;27;20306;-66
2023/12/30 00:17:28;;;;;;;3.90;3.70;;;;;;;;;;6411046;27;20598;-67
2023/12/30 00:20:32;;;;;;;3.60;3.43;;;;;;;;;;6410538;27;20346;-67
2023/12/30 00:23:37;;;;;;;3.47;3.20;;;;;;;;;;6410779;27;20355;-67
2023/12/30 00:26:48;;;;;;;3.53;3.43;;;;;;;;;;6411133;27;20292;-66
2023/12/30 00:29:52;;;;;;;3.50;3.30;;;;;;;;;;6391063;27;20474;-66
2023/12/30 00:32:57;;;;;;;2.90;2.80;;;;;;;;;;6383136;27;20291;-66
2023/12/30 00:36:04;;;;;;;4.07;3.77;;;;;;;;;;6385237;27;20288;-67
2023/12/30 00:39:08;;;;;;;3.30;3.17;;;;;;;;;;6365986;28;20296;-67
2023/12/30 00:42:12;;;;;;;3.47;3.07;;;;;;;;;;6385273;27;20292;-67
2023/12/30 00:45:16;;;;;;;3.00;2.80;;;;;;;;;;6384949;27;20304;-66
2023/12/30 00:48:21;;;;;;;2.70;2.60;;;;;;;;;;6382862;27;20288;-67
2023/12/30 00:51:25;;;;;;;2.80;2.70;;;;;;;;;;6389631;27;20315;-67
2023/12/30 00:54:29;;;;;;;2.67;2.60;;;;;;;;;;6390169;27;20284;-66
2023/12/30 00:57:43;;;;;;;3.20;3.10;;;;;;;;;;6389682;27;20296;-67
2023/12/30 01:00:47;;;;;;;2.70;2.70;;;;;;;;;;6388417;27;20299;-67
2023/12/30 01:03:53;;;;;;;3.03;2.90;;;;;;;;;;6389507;27;20288;-67
2023/12/30 01:06:57;;;;;;;2.50;2.50;;;;;;;;;;6390088;27;20298;-67
2023/12/30 01:10:01;;;;;;;2.63;2.47;;;;;;;;;;6390532;27;20283;-67
2023/12/30 01:13:06;;;;;;;2.90;2.80;;;;;;;;;;6415453;27;20291;-67
2023/12/30 01:16:10;;;;;;;2.50;2.33;;;;;;;;;;6415761;27;20284;-67
2023/12/30 01:19:16;;;;;;;2.47;2.37;;;;;;;;;;6391803;27;20291;-67
2023/12/30 01:22:21;;;;;;;2.50;2.50;;;;;;;;;;6365121;27;20291;-67
2023/12/30 01:25:24;;;;;;;1.90;1.90;;;;;;;;;;6370365;27;20341;-67
2023/12/30 01:28:28;;;;;;;1.77;1.70;;;;;;;;;;6379827;27;20288;-67
2023/12/30 01:31:34;;;;;;;2.20;2.20;;;;;;;;;;6363966;28;20304;-67
2023/12/30 01:34:39;;;;;;;1.70;1.60;;;;;;;;;;6363509;28;20581;-67
2023/12/30 01:37:43;;;;;;;1.47;1.47;;;;;;;;;;6361917;28;20292;-67
2023/12/30 01:40:47;;;;;;;1.70;1.70;;;;;;;;;;6363762;28;20297;-67
2023/12/30 01:43:51;;;;;;;1.70;1.70;;;;;;;;;;6361678;28;20577;-66
2023/12/30 01:46:55;;;;;;;1.70;1.70;;;;;;;;;;6363788;28;20561;-67
2023/12/30 01:50:01;;;;;;;1.50;1.50;;;;;;;;;;6360706;28;20288;-67
2023/12/30 01:53:05;;;;;;;1.40;1.40;;;;;;;;;;6361968;27;20285;-67
2023/12/30 01:56:09;;;;;;;1.47;1.47;;;;;;;;;;6363494;28;20240;-67
2023/12/30 01:59:15;;;;;;;1.60;1.50;;;;;;;;;;6361293;28;20336;-66
2023/12/30 02:02:21;;;;;;;1.50;1.50;;;;;;;;;;6360739;28;20375;-67
2023/12/30 02:05:26;;;;;;;1.40;1.40;;;;;;;;;;6361118;28;20328;-67
2023/12/30 02:08:30;;;;;;;1.43;1.43;;;;;;;;;;6354365;28;20293;-66
2023/12/30 02:11:37;;;;;;;1.73;1.73;;;;;;;;;;6306460;28;20297;-67
2023/12/30 02:14:41;;;;;;;1.70;1.70;;;;;;;;;;6310303;28;20289;-66
2023/12/30 02:17:45;;;;;;;1.80;1.80;;;;;;;;;;6310576;28;20431;-67
2023/12/30 02:20:50;;;;;;;1.70;1.70;;;;;;;;;;6326067;28;20585;-68
2023/12/30 02:23:57;;;;;;;2.00;2.00;;;;;;;;;;6362267;28;20296;-66
2023/12/30 02:27:02;;;;;;;1.63;1.63;;;;;;;;;;6344037;28;20288;-67
2023/12/30 02:30:07;;;;;;;1.90;1.90;;;;;;;;;;6364948;27;20613;-67
2023/12/30 02:33:10;;;;;;;2.13;2.03;;;;;;;;;;6387189;27;20295;-67
2023/12/30 02:36:15;;;;;;;1.90;1.90;;;;;;;;;;6386106;27;20287;-67
2023/12/30 02:39:20;;;;;;;1.90;1.90;;;;;;;;;;6387435;27;20318;-66
2023/12/30 02:42:24;;;;;;;2.00;1.90;;;;;;;;;;6388003;27;20304;-66
2023/12/30 02:45:28;;;;;;;2.50;2.40;;;;;;;;;;6385733;27;20295;-67
2023/12/30 02:48:32;;;;;;;2.33;2.27;;;;;;;;;;6385715;27;20286;-66
2023/12/30 02:51:36;;;;;;;2.13;2.13;;;;;;;;;;6387277;27;20455;-68
2023/12/30 02:54:41;;;;;;;2.50;2.40;;;;;;;;;;6387114;27;20296;-67
2023/12/30 02:57:45;;;;;;;2.20;2.20;;;;;;;;;;6385039;27;20315;-66
2023/12/30 03:00:52;;;;;;;2.17;2.17;;;;;;;;;;6386579;27;20292;-67
2023/12/30 03:03:58;;;;;;;2.33;2.30;;;;;;;;;;6385329;27;20287;-66
2023/12/30 03:07:02;;;;;;;2.13;2.03;;;;;;;;;;6387117;27;20302;-67
2023/12/30 03:10:08;;;;;;;2.03;2.03;;;;;;;;;;6386453;27;20294;-67
2023/12/30 03:13:13;;;;;;;3.20;2.80;;;;;;;;;;6386083;27;20468;-67
2023/12/30 03:16:18;;;;;;;1.60;1.60;;;;;;;;;;6375559;27;20290;-67
2023/12/30 03:19:22;;;;;;;2.40;1.93;;;;;;;;;;6380494;27;20296;-67
2023/12/30 03:22:26;;;;;;;2.00;1.90;;;;;;;;;;6366294;27;20586;-67
2023/12/30 03:25:32;;;;;;;1.70;1.70;;;;;;;;;;6367681;27;20299;-67
2023/12/30 03:28:37;;;;;;;2.07;2.00;;;;;;;;;;6386198;27;20295;-68
2023/12/30 03:31:42;;;;;;;1.60;1.60;;;;;;;;;;6386951;27;20314;-67
2023/12/30 03:34:46;;;;;;;1.63;1.63;;;;;;;;;;6386398;27;20383;-67
2023/12/30 03:37:50;;;;;;;1.87;1.83;;;;;;;;;;6386101;27;20283;-67
2023/12/30 03:40:57;;;;;;;1.70;1.70;;;;;;;;;;6386427;27;20291;-66
2023/12/30 03:44:01;;;;;;;1.87;1.77;;;;;;;;;;6384032;27;20287;-67
2023/12/30 03:47:05;;;;;;;1.63;1.63;;;;;;;;;;6366273;27;20270;-67
2023/12/30 03:50:11;;;;;;;1.60;1.60;;;;;;;;;;6367109;27;20323;-67
2023/12/30 03:53:15;;;;;;;1.87;1.77;;;;;;;;;;6366900;27;20287;-66
2023/12/30 03:56:20;;;;;;;1.80;1.80;;;;;;;;;;6383967;27;20260;-67
2023/12/30 03:59:24;;;;;;;1.60;1.50;;;;;;;;;;6385271;27;20294;-67
2023/12/30 04:02:27;;;;;;;1.53;1.53;;;;;;;;;;6384770;27;20392;-67
2023/12/30 04:05:31;;;;;;;1.73;1.73;;;;;;;;;;6364649;27;20321;-67
2023/12/30 04:08:36;;;;;;;1.70;1.70;;;;;;;;;;6366653;27;20569;-67
2023/12/30 04:11:41;;;;;;;1.70;1.70;;;;;;;;;;6366705;27;20313;-67
2023/12/30 04:14:45;;;;;;;1.97;1.87;;;;;;;;;;6385334;27;20298;-67
2023/12/30 04:17:49;;;;;;;1.90;1.80;;;;;;;;;;6366618;27;20287;-67
2023/12/30 04:20:53;;;;;;;1.97;1.87;;;;;;;;;;6358433;28;20299;-67
2023/12/30 04:23:57;;;;;;;1.80;1.80;;;;;;;;;;6357369;28;20431;-67
2023/12/30 04:27:02;;;;;;;1.60;1.60;;;;;;;;;;6360049;28;20289;-67
2023/12/30 04:30:08;;;;;;;2.10;2.00;;;;;;;;;;6344494;28;20287;-67
2023/12/30 04:33:12;;;;;;;2.27;2.20;;;;;;;;;;6357631;28;20501;-68
2023/12/30 04:36:16;;;;;;;2.10;2.00;;;;;;;;;;6342103;28;20298;-67
2023/12/30 04:39:20;;;;;;;2.37;2.17;;;;;;;;;;6358939;28;20303;-67
2023/12/30 04:42:25;;;;;;;2.37;2.27;;;;;;;;;;6359918;28;20295;-67
2023/12/30 04:45:30;;;;;;;2.80;2.53;;;;;;;;;;6357539;28;20287;-66
2023/12/30 04:48:34;;;;;;;2.63;2.50;;;;;;;;;;6358942;28;20295;-66
2023/12/30 04:51:38;;;;;;;2.90;2.80;;;;;;;;;;6359596;28;20295;-68
2023/12/30 04:54:42;;;;;;;2.20;2.20;;;;;;;;;;6359193;28;20300;-66
2023/12/30 04:57:49;;;;;;;3.73;2.30;;;;;;;;;;6357509;28;20316;-66
2023/12/30 05:00:52;;;;;;;2.20;2.10;;;;;;;;;;6359252;28;20295;-67
2023/12/30 05:03:57;;;;;;;2.40;2.30;;;;;;;;;;6359052;28;20424;-67
2023/12/30 05:07:01;;;;;;;2.63;2.40;;;;;;;;;;6360282;28;20307;-66
2023/12/30 05:10:06;;;;;;;1.93;1.83;;;;;;;;;;6376279;28;20299;-66
2023/12/30 05:13:11;;;;;;;2.13;2.03;;;;;;;;;;6359045;28;20295;-66
2023/12/30 05:16:15;;;;;;;1.50;1.50;;;;;;;;;;6359357;28;20288;-66
2023/12/30 05:19:19;;;;;;;2.00;1.90;;;;;;;;;;6358775;28;20475;-66
2023/12/30 05:22:23;;;;;;;2.23;2.20;;;;;;;;;;6384917;28;20320;-66
2023/12/30 05:25:27;;;;;;;2.20;2.20;;;;;;;;;;6383894;28;20290;-67
2023/12/30 05:28:32;;;;;;;2.23;2.13;;;;;;;;;;6384334;27;20482;-66
2023/12/30 05:31:36;;;;;;;2.33;2.30;;;;;;;;;;6384858;28;20295;-67
2023/12/30 05:34:40;;;;;;;2.33;2.33;;;;;;;;;;6384076;27;20306;-67
2023/12/30 05:37:45;;;;;;;2.60;2.40;;;;;;;;;;6388836;27;20296;-67
2023/12/30 05:40:48;;;;;;;2.30;2.20;;;;;;;;;;6389625;27;20287;-67
2023/12/30 05:43:54;;;;;;;2.20;2.20;;;;;;;;;;6388854;27;20295;-67
2023/12/30 05:46:58;;;;;;;2.33;2.27;;;;;;;;;;6388854;27;20294;-67
2023/12/30 05:50:03;;;;;;;2.47;2.47;;;;;;;;;;6387898;27;20294;-67
2023/12/30 05:53:06;;;;;;;2.40;2.30;;;;;;;;;;6388624;27;20587;-67
2023/12/30 05:56:10;;;;;;;2.60;2.50;;;;;;;;;;6389033;27;20264;-67
2023/12/30 05:59:16;;;;;;;2.20;2.20;;;;;;;;;;6388319;27;20290;-66
2023/12/30 06:02:20;;;;;;;2.40;2.40;;;;;;;;;;6369797;27;20551;-66
2023/12/30 06:05:24;;;;;;;2.07;2.07;;;;;;;;;;6369836;27;20334;-67
2023/12/30 06:08:28;;;;;;;2.23;2.23;;;;;;;;;;6387738;27;20287;-67
2023/12/30 06:11:32;;;;;;;1.90;1.90;;;;;;;;;;6388275;27;20294;-67
2023/12/30 06:14:37;;;;;;;2.10;2.10;;;;;;;;;;6387902;27;20295;-68
2023/12/30 06:17:41;;;;;;;2.00;2.00;;;;;;;;;;6387780;27;20299;-67
2023/12/30 06:20:46;;;;;;;2.30;2.30;;;;;;;;;;6387766;27;20302;-66
2023/12/30 06:23:50;;;;;;;2.43;2.43;;;;;;;;;;6387624;27;20290;-67
2023/12/30 06:26:54;;;;;;;2.77;2.77;;;;;;;;;;6388371;27;20287;-66
2023/12/30 06:30:00;;;;;;;2.37;2.37;;;;;;;;;;6387546;27;20285;-67
2023/12/30 06:33:06;;;;;;;2.30;2.30;;;;;;;;;;6387320;27;20337;-66
2023/12/30 06:36:20;;;;;;;2.33;2.23;;;;;;;;;;6361996;27;20288;-67
2023/12/30 06:39:24;;;;;;;2.30;2.20;;;;;;;;;;6361737;27;20288;-67
2023/12/30 06:42:28;;;;;;;2.37;2.37;;;;;;;;;;6362148;28;20299;-66
2023/12/30 06:45:33;;;;;;;2.27;2.27;;;;;;;;;;6361700;28;20477;-67
2023/12/30 06:48:37;;;;;;;2.17;2.10;;;;;;;;;;6361003;27;20296;-67
2023/12/30 06:51:43;;;;;;;2.27;2.27;;;;;;;;;;6362061;28;20390;-67
2023/12/30 06:54:47;;;;;;;2.30;2.30;;;;;;;;;;6361318;28;20295;-67
2023/12/30 06:58:05;;;;;;;2.90;2.80;;;;;;;;;;6361542;28;20292;-66
2023/12/30 07:01:10;;;;;;;3.20;3.10;;;;;;;;;;6362017;28;20491;-66
2023/12/30 07:04:14;;;;;;;3.47;3.30;;;;;;;;;;6361305;28;20303;-66
2023/12/30 07:07:18;;;;;;;3.47;3.37;;;;;;;;;;6361975;27;20472;-66
2023/12/30 07:10:22;;;;;;;3.40;3.30;;;;;;;;;;6386524;27;20575;-66
2023/12/30 07:13:26;;;;;;;3.17;3.07;;;;;;;;;;6386531;27;20296;-66
2023/12/30 07:16:32;;;;;;;3.63;3.50;;;;;;;;;;6387038;27;20315;-66
2023/12/30 07:19:36;;;;;;;3.80;3.70;;;;;;;;;;6386427;27;20295;-67
2023/12/30 07:22:40;;;;;;;4.27;4.07;;;;;;;;;;6386149;27;20319;-67
2023/12/30 07:25:44;;;;;;;4.20;4.00;;;;;;;;;;6386849;27;20316;-67
2023/12/30 07:28:48;;;;;;;3.90;3.70;;;;;;;;;;6385853;27;20295;-67
2023/12/30 07:31:53;;;;;;;3.40;3.30;;;;;;;;;;6386762;27;20363;-67
2023/12/30 07:34:57;;;;;;;3.80;3.70;;;;;;;;;;6386053;27;20295;-67
2023/12/30 07:38:01;;;;;;;3.83;3.70;;;;;;;;;;6385381;27;20287;-70
2023/12/30 07:41:05;;;;;;;3.97;3.87;;;;;;;;;;6386374;27;20243;-67
2023/12/30 07:44:09;;;;;;;3.93;3.70;;;;;;;;;;6385616;27;20378;-67
2023/12/30 07:47:14;;;;;;;4.10;4.00;;;;;;;;;;6386227;27;20417;-67
2023/12/30 07:50:18;;;;;;;4.43;4.23;;;;;;;;;;6385598;27;20299;-67
2023/12/30 07:53:22;;;;;;;4.90;4.60;;;;;;;;;;6385360;27;20333;-66
2023/12/30 07:56:26;;;;;;;4.53;4.13;;;;;;;;;;6367570;27;20551;-66
2023/12/30 07:59:30;;;;;;;4.90;4.70;;;;;;;;;;6384440;27;20420;-66
2023/12/30 08:02:36;;;;;;;4.80;4.50;;;;;;;;;;6386082;27;20299;-66
2023/12/30 08:05:40;;;;;;;5.03;4.73;;;;;;;;;;6385522;27;20449;-66
2023/12/30 08:08:44;;;;;;;5.00;4.70;;;;;;;;;;6385004;27;20288;-67
2023/12/30 08:11:48;;;;;;;5.00;4.70;;;;;;;;;;6385276;27;20294;-66
2023/12/30 08:15:07;;;;;;;4.50;4.30;;;;;;;;;;6385006;27;20477;-66
2023/12/30 08:18:12;;;;;;;5.30;5.00;;;;;;;;;;6384955;27;20294;-67
2023/12/30 08:21:17;;;;;;;5.10;4.80;;;;;;;;;;6385570;27;20294;-68
2023/12/30 08:24:21;;;;;;;4.90;4.60;;;;;;;;;;6384757;27;20299;-67
2023/12/30 08:27:25;;;;;;;5.07;4.63;;;;;;;;;;6385267;27;20294;-68
2023/12/30 08:30:29;;;;;;;5.33;5.03;;;;;;;;;;6366600;27;20566;-67
2023/12/30 08:33:34;;;;;;;4.73;4.53;;;;;;;;;;6384906;27;20291;-67
2023/12/30 08:36:38;;;;;;;4.90;4.50;;;;;;;;;;6385178;27;20353;-66
2023/12/30 08:39:42;;;;;;;4.93;4.63;;;;;;;;;;6384708;27;20453;-67
2023/12/30 08:42:46;;;;;;;5.00;4.70;;;;;;;;;;6384791;27;20298;-66
2023/12/30 08:45:50;;;;;;;4.73;4.53;;;;;;;;;;6385673;28;20477;-66
2023/12/30 08:48:56;;;;;;;5.37;4.97;;;;;;;;;;6384330;28;20299;-65
2023/12/30 08:52:00;;;;;;;4.70;4.47;;;;;;;;;;6384730;28;20285;-66
2023/12/30 08:55:09;;;;;;;5.10;4.80;;;;;;;;;;6384693;28;20295;-66
2023/12/30 08:58:13;;;;;;;5.73;5.43;;;;;;;;;;6384095;28;20318;-67
2023/12/30 09:01:17;;;;;;;4.80;4.57;;;;;;;;;;6384997;28;20287;-67
2023/12/30 09:04:22;;;;;;;4.73;4.43;;;;;;;;;;6384570;28;20291;-67
2023/12/30 09:07:26;;;;;;;5.67;5.17;;;;;;;;;;6384780;28;20295;-67
2023/12/30 09:10:31;;;;;;;5.20;4.90;;;;;;;;;;6385835;27;20300;-67
2023/12/30 09:13:35;;;;;;;4.87;4.60;;;;;;;;;;6389688;27;20304;-67
2023/12/30 09:16:39;;;;;;;5.20;4.90;;;;;;;;;;6390097;27;20487;-67
2023/12/30 09:19:44;;;;;;;5.70;5.30;;;;;;;;;;6388948;27;20638;-67
2023/12/30 09:22:49;;;;;;;5.97;5.57;;;;;;;;;;6389246;27;20295;-66
2023/12/30 09:25:53;;;;;;;4.93;4.67;;;;;;;;;;6389693;27;20287;-67
2023/12/30 09:28:56;;;;;;;5.37;5.07;;;;;;;;;;6389256;27;20475;-67
2023/12/30 09:32:00;;;;;;;5.70;5.20;;;;;;;;;;6389257;27;20295;-67
2023/12/30 09:35:07;;;;;;;4.97;4.67;;;;;;;;;;6382636;27;20583;-67
2023/12/30 09:38:12;;;;;;;4.47;4.27;;;;;;;;;;6388783;27;20298;-67
2023/12/30 09:41:16;;;;;;;5.60;5.20;;;;;;;;;;6389368;27;20239;-67
2023/12/30 09:44:22;;;;;;;5.40;5.00;;;;;;;;;;6389092;27;20301;-67
2023/12/30 09:47:28;;;;;;;4.60;4.30;;;;;;;;;;6389197;27;20314;-66
2023/12/30 09:50:34;;;;;;;5.10;4.60;;;;;;;;;;6388706;27;20286;-66
2023/12/30 09:53:38;;;;;;;4.23;4.07;;;;;;;;;;6388104;27;20527;-66
2023/12/30 09:56:42;;;;;;;4.50;4.30;;;;;;;;;;6388796;27;20302;-66
2023/12/30 09:59:47;;;;;;;5.30;4.90;;;;;;;;;;6388442;27;20284;-68
2023/12/30 10:02:51;;;;;;;4.40;4.10;;;;;;;;;;6389108;27;20575;-67
2023/12/30 10:05:59;;;;;;;3.97;3.87;;;;;;;;;;6388910;27;20283;-66
2023/12/30 10:09:03;;;;;;;4.40;4.20;;;;;;;;;;6387999;27;20400;-66
2023/12/30 10:12:09;;;;;;;4.40;4.20;;;;;;;;;;6388288;27;20311;-66
2023/12/30 10:15:13;;;;;;;4.43;4.23;;;;;;;;;;6388206;27;20291;-67
2023/12/30 10:18:17;;;;;;;4.60;4.27;;;;;;;;;;6388040;27;20294;-68
2023/12/30 10:21:23;;;;;;;4.27;4.03;;;;;;;;;;6387754;27;20299;-68
2023/12/30 10:24:27;;;;;;;4.77;4.47;;;;;;;;;;6387706;27;20295;-67
2023/12/30 10:27:30;;;;;;;3.17;3.07;;;;;;;;;;6370340;27;20477;-68
2023/12/30 10:30:34;;;;;;;4.47;4.10;;;;;;;;;;6387556;27;20309;-67
2023/12/30 10:33:38;;;;;;;3.80;3.70;;;;;;;;;;6387641;27;20291;-67
2023/12/30 10:36:44;;;;;;;4.07;3.87;;;;;;;;;;6386335;27;20302;-67
2023/12/30 10:39:48;;;;;;;4.10;3.90;;;;;;;;;;6387598;27;20523;-66
2023/12/30 10:42:52;;;;;;;4.27;3.97;;;;;;;;;;6387749;27;20287;-66
2023/12/30 10:45:58;;;;;;;3.97;3.80;;;;;;;;;;6388211;27;20306;-68
2023/12/30 10:49:04;;;;;;;4.23;4.07;;;;;;;;;;6368972;27;20575;-67
2023/12/30 10:52:13;;;;;;;3.57;3.47;;;;;;;;;;6387776;27;20299;-67
2023/12/30 10:55:17;;;;;;;3.77;3.53;;;;;;;;;;6385994;27;20291;-68
2023/12/30 10:58:23;;;;;;;3.10;3.00;;;;;;;;;;6386889;27;20571;-67
2023/12/30 11:01:27;;;;;;;4.00;3.07;;;;;;;;;;6387808;27;20291;-67
2023/12/30 11:04:30;;;;;;;3.03;2.93;;;;;;;;;;6385602;27;20483;-67
2023/12/30 11:07:37;;;;;;;3.30;3.10;;;;;;;;;;6384483;27;20343;-67
2023/12/30 11:10:42;;;;;;;3.33;3.23;;;;;;;;;;6386604;27;20292;-67
2023/12/30 11:13:48;;;;;;;3.10;3.10;;;;;;;;;;6386541;27;20295;-67
2023/12/30 11:16:54;;;;;;;2.70;2.70;;;;;;;;;;6387299;27;20295;-67
2023/12/30 11:20:25;;;;;;;2.40;2.40;;;;;;;;;;6386330;27;20301;-67
2023/12/30 11:23:30;;;;;;;2.63;2.60;;;;;;;;;;6385721;27;20295;-67
2023/12/30 11:26:37;;;;;;;2.83;2.73;;;;;;;;;;6386588;27;20381;-67
2023/12/30 11:29:42;;;;;;;2.30;2.30;;;;;;;;;;6368163;27;20323;-67
2023/12/30 11:32:46;;;;;;;3.27;2.67;;;;;;;;;;6386160;27;20310;-67
2023/12/30 11:35:51;;;;;;;2.40;2.40;;;;;;;;;;6368375;27;20587;-67
2023/12/30 11:38:58;;;;;;;2.40;2.40;;;;;;;;;;6386023;27;20306;-68
2023/12/30 11:42:03;;;;;;;2.70;2.60;;;;;;;;;;6386527;27;20293;-67
2023/12/30 11:45:08;;;;;;;2.80;2.70;;;;;;;;;;6386029;27;20335;-67
2023/12/30 11:48:12;;;;;;;2.70;2.50;;;;;;;;;;6385704;27;20298;-68
2023/12/30 11:51:23;;;;;;;2.60;2.40;;;;;;;;;;6386518;27;20290;-67
2023/12/30 11:54:28;;;;;;;2.47;2.43;;;;;;;;;;6386054;27;20296;-67
2023/12/30 11:57:33;;;;;;;2.80;2.70;;;;;;;;;;6386281;27;20296;-67
2023/12/30 12:00:37;;;;;;;2.40;2.40;;;;;;;;;;6385771;27;20314;-67
2023/12/30 12:03:42;;;;;;;3.00;2.90;;;;;;;;;;6367036;27;20638;-67
2023/12/30 12:06:46;;;;;;;2.70;2.60;;;;;;;;;;6386335;27;20294;-67
2023/12/30 12:09:52;;;;;;;2.80;2.70;;;;;;;;;;6385612;27;20286;-68
2023/12/30 12:12:56;;;;;;;2.50;2.40;;;;;;;;;;6385929;27;20291;-68
2023/12/30 12:16:01;;;;;;;2.93;2.90;;;;;;;;;;6386319;27;20658;-68
2023/12/30 12:19:05;;;;;;;3.00;2.90;;;;;;;;;;6385498;27;20499;-67
2023/12/30 12:22:09;;;;;;;2.80;2.70;;;;;;;;;;6385901;27;20308;-67
2023/12/30 12:25:15;;;;;;;2.33;2.33;;;;;;;;;;6385390;27;20298;-68
2023/12/30 12:28:22;;;;;;;2.70;2.60;;;;;;;;;;6384530;27;20288;-67
2023/12/30 12:31:30;;;;;;;2.30;2.30;;;;;;;;;;6385731;27;20298;-68
2023/12/30 12:34:34;;;;;;;2.60;2.43;;;;;;;;;;6385017;27;20295;-68
2023/12/30 12:37:38;;;;;;;2.57;2.57;;;;;;;;;;6366467;27;20342;-67
2023/12/30 12:40:44;;;;;;;2.90;2.80;;;;;;;;;;6384833;27;20294;-67
2023/12/30 12:43:48;;;;;;;2.87;2.87;;;;;;;;;;6384683;28;20583;-66
2023/12/30 12:46:52;;;;;;;3.10;2.90;;;;;;;;;;6384979;27;20294;-67
2023/12/30 12:49:56;;;;;;;2.90;2.90;;;;;;;;;;6384837;28;20291;-68
2023/12/30 12:53:00;;;;;;;3.00;2.90;;;;;;;;;;6384828;28;20290;-68
2023/12/30 12:56:08;;;;;;;3.40;3.30;;;;;;;;;;6378929;28;20549;-67
2023/12/30 12:59:12;;;;;;;3.57;3.33;;;;;;;;;;6384297;28;20304;-68
2023/12/30 13:02:16;;;;;;;3.27;3.17;;;;;;;;;;6385088;28;20239;-68
2023/12/30 13:05:21;;;;;;;3.63;3.33;;;;;;;;;;6384733;28;20295;-68
2023/12/30 13:08:28;;;;;;;4.07;3.17;;;;;;;;;;6384365;28;20281;-68
2023/12/30 13:11:43;;;;;;;2.93;2.93;;;;;;;;;;6384881;28;20291;-68
2023/12/30 13:14:46;;;;;;;3.73;3.60;;;;;;;;;;6384427;28;20294;-68
2023/12/30 13:17:50;;;;;;;3.60;3.50;;;;;;;;;;6384358;28;20288;-66
2023/12/30 13:20:56;;;;;;;4.07;3.77;;;;;;;;;;6384686;28;20298;-67
2023/12/30 13:24:04;;;;;;;3.53;3.43;;;;;;;;;;6385965;28;20286;-66
2023/12/30 13:27:19;;;;;;;3.17;2.97;;;;;;;;;;6388626;28;20291;-68
2023/12/30 13:30:31;;;;;;;3.60;3.40;;;;;;;;;;6350272;28;20614;-68
2023/12/30 13:33:38;;;;;;;3.87;3.77;;;;;;;;;;6384135;28;20287;-67
2023/12/30 13:36:42;;;;;;;4.20;4.00;;;;;;;;;;6384860;28;20321;-68
2023/12/30 13:39:46;;;;;;;3.97;3.77;;;;;;;;;;6384049;28;20297;-67
2023/12/30 13:42:53;;;;;;;4.27;3.87;;;;;;;;;;6384310;28;20577;-69
2023/12/30 13:46:12;;;;;;;4.30;4.10;;;;;;;;;;6384478;28;20284;-67
2023/12/30 13:52:38;;;;;;;4.57;4.10;;;;;;;;;;6385040;28;20294;-65
2023/12/30 13:55:42;;;;;;;4.27;3.97;;;;;;;;;;6383916;28;20295;-69
2023/12/30 13:58:48;;;;;;;4.47;4.17;;;;;;;;;;6387063;27;20366;-70
2023/12/30 14:01:51;;;;;;;4.63;4.33;;;;;;;;;;6389053;27;20291;-68
2023/12/30 14:04:57;;;;;;;4.07;3.67;;;;;;;;;;6388425;27;20288;-69
2023/12/30 14:08:14;;;;;;;4.17;4.03;;;;;;;;;;6380822;27;20295;-68
2023/12/30 14:11:31;;;;;;;3.73;3.47;;;;;;;;;;6344907;28;20244;-68
2023/12/30 14:14:41;;;;;;;3.60;3.50;;;;;;;;;;6362553;28;20291;-66
2023/12/30 14:17:45;;;;;;;3.87;3.57;;;;;;;;;;6362588;28;20298;-68
2023/12/30 14:20:50;;;;;;;3.97;3.77;;;;;;;;;;6362706;28;20294;-67
2023/12/30 14:23:54;;;;;;;3.77;3.67;;;;;;;;;;6362318;28;20307;-67
2023/12/30 14:26:58;;;;;;;3.50;3.40;;;;;;;;;;6362702;28;20310;-65
2023/12/30 14:30:05;;;;;;;3.83;3.67;;;;;;;;;;6362146;27;20295;-67
2023/12/30 14:33:10;;;;;;;3.97;3.80;;;;;;;;;;6362000;27;20300;-67
2023/12/30 14:36:15;;;;;;;3.90;3.70;;;;;;;;;;6362777;27;20307;-66
2023/12/30 14:39:21;;;;;;;4.10;3.90;;;;;;;;;;6361697;27;20442;-66
2023/12/30 14:42:25;;;;;;;4.27;3.97;;;;;;;;;;6362269;27;20316;-67
2023/12/30 14:45:30;;;;;;;3.80;3.70;;;;;;;;;;6361870;27;20300;-66
2023/12/30 14:48:34;;;;;;;4.30;4.10;;;;;;;;;;6361871;27;20592;-67
2023/12/30 14:51:38;;;;;;;4.80;4.40;;;;;;;;;;6362449;27;20290;-68
2023/12/30 14:54:42;;;;;;;4.30;4.00;;;;;;;;;;6361563;27;20314;-67
2023/12/30 14:57:48;;;;;;;3.63;3.43;;;;;;;;;;6361608;27;20304;-68
2023/12/30 15:00:53;;;;;;;3.50;3.40;;;;;;;;;;6362195;27;20303;-65
2023/12/30 15:04:01;;;;;;;3.77;3.57;;;;;;;;;;6361519;27;20288;-67
2023/12/30 15:07:07;;;;;;;3.87;3.63;;;;;;;;;;6362264;27;20294;-67
2023/12/30 15:10:13;;;;;;;4.17;3.80;;;;;;;;;;6385746;27;20302;-68
2023/12/30 15:13:18;;;;;;;3.80;3.70;;;;;;;;;;6387241;27;20341;-68
2023/12/30 15:16:24;;;;;;;3.37;3.27;;;;;;;;;;6386803;27;20298;-68
2023/12/30 15:19:28;;;;;;;3.23;3.13;;;;;;;;;;6386218;27;20295;-68
2023/12/30 15:22:32;;;;;;;3.27;3.17;;;;;;;;;;6386521;27;20298;-66
2023/12/30 15:25:38;;;;;;;3.60;3.50;;;;;;;;;;6386535;27;20290;-66
2023/12/30 15:28:42;;;;;;;4.17;3.97;;;;;;;;;;6386370;27;20283;-67
2023/12/30 15:31:48;;;;;;;4.03;3.83;;;;;;;;;;6386594;27;20304;-67
2023/12/30 15:34:53;;;;;;;3.97;3.77;;;;;;;;;;6386421;27;20294;-67
2023/12/30 15:37:57;;;;;;;4.53;4.20;;;;;;;;;;6367422;27;20360;-68
2023/12/30 15:41:22;;;;;;;4.40;4.10;;;;;;;;;;6385671;27;20287;-67
2023/12/30 15:44:26;;;;;;;4.43;4.13;;;;;;;;;;6386086;27;20448;-68
2023/12/30 15:47:32;;;;;;;4.57;4.37;;;;;;;;;;6386164;27;20285;-68
2023/12/30 15:50:36;;;;;;;3.70;3.43;;;;;;;;;;6385904;27;20290;-68
2023/12/30 15:53:40;;;;;;;3.93;3.63;;;;;;;;;;6385502;27;20288;-68
2023/12/30 15:56:44;;;;;;;4.00;3.70;;;;;;;;;;6386332;27;20578;-68
2023/12/30 15:59:48;;;;;;;3.80;3.67;;;;;;;;;;6385773;27;20291;-66
2023/12/30 16:02:55;;;;;;;4.30;4.10;;;;;;;;;;6385882;27;20582;-67
2023/12/30 16:05:59;;;;;;;3.77;3.57;;;;;;;;;;6386246;27;20290;-68
2023/12/30 16:09:04;;;;;;;5.97;3.80;;;;;;;;;;6385412;27;20295;-67
2023/12/30 16:12:08;;;;;;;3.93;3.73;;;;;;;;;;6385714;27;20294;-67
2023/12/30 16:15:12;;;;;;;3.40;3.30;;;;;;;;;;6385623;27;20307;-68
2023/12/30 16:18:18;;;;;;;3.67;3.37;;;;;;;;;;6385169;27;20323;-68
2023/12/30 16:21:22;;;;;;;3.50;3.30;;;;;;;;;;6384549;27;20290;-68
2023/12/30 16:24:26;;;;;;;3.60;3.47;;;;;;;;;;6383048;27;20290;-68
2023/12/30 16:27:30;;;;;;;4.03;3.73;;;;;;;;;;6385606;27;20293;-67
2023/12/30 16:30:34;;;;;;;5.23;3.90;;;;;;;;;;6384862;27;20291;-67
2023/12/30 16:33:40;;;;;;;4.33;3.33;;;;;;;;;;6384835;27;20295;-67
2023/12/30 16:36:45;;;;;;;3.60;3.50;;;;;;;;;;6385413;27;20287;-67
2023/12/30 16:39:49;;;;;;;3.87;3.67;;;;;;;;;;6384629;27;20386;-68
2023/12/30 16:42:55;;;;;;;3.87;3.70;;;;;;;;;;6384918;27;20301;-69
2023/12/30 16:45:59;;;;;;;3.90;3.70;;;;;;;;;;6385215;28;20563;-68
2023/12/30 16:49:04;;;;;;;4.43;4.23;;;;;;;;;;6384574;27;20290;-69
2023/12/30 16:52:09;;;;;;;3.87;3.67;;;;;;;;;;6385512;28;20301;-69
2023/12/30 16:55:14;;;;;;;3.80;3.50;;;;;;;;;;6384960;28;20484;-67
2023/12/30 16:58:18;;;;;;;4.37;3.97;;;;;;;;;;6384934;28;20290;-70
2023/12/30 17:01:22;;;;;;;3.63;3.43;;;;;;;;;;6385090;28;20281;-68
2023/12/30 17:04:27;;;;;;;3.70;3.50;;;;;;;;;;6384983;28;20303;-69
2023/12/30 17:07:32;;;;;;;3.30;3.10;;;;;;;;;;6385077;28;20294;-67
2023/12/30 17:10:36;;;;;;;3.47;3.17;;;;;;;;;;6378773;28;20297;-69
2023/12/30 17:13:40;;;;;;;2.80;2.70;;;;;;;;;;6384208;28;20287;-68
2023/12/30 17:16:55;;;;;;;3.40;3.20;;;;;;;;;;6385187;28;20301;-69
2023/12/30 17:20:01;;;;;;;3.00;2.90;;;;;;;;;;6384096;28;20298;-68
2023/12/30 17:23:07;;;;;;;2.97;2.87;;;;;;;;;;6383477;27;20303;-68
2023/12/30 17:26:11;;;;;;;2.87;2.77;;;;;;;;;;6384573;28;20425;-68
2023/12/30 17:29:15;;;;;;;3.40;3.20;;;;;;;;;;6384258;28;20295;-68
2023/12/30 17:32:19;;;;;;;3.77;3.63;;;;;;;;;;6387316;27;20246;-68
2023/12/30 17:35:27;;;;;;;4.20;4.00;;;;;;;;;;6389138;27;20295;-68
2023/12/30 17:38:31;;;;;;;3.57;3.40;;;;;;;;;;6388849;27;20295;-68
2023/12/30 17:41:34;;;;;;;3.13;3.03;;;;;;;;;;6389616;27;20314;-68
2023/12/30 17:44:38;;;;;;;3.93;3.83;;;;;;;;;;6389108;27;20294;-68
2023/12/30 17:47:44;;;;;;;3.60;3.50;;;;;;;;;;6388822;27;20283;-68
2023/12/30 17:50:49;;;;;;;3.83;3.40;;;;;;;;;;6389472;27;20286;-68
2023/12/30 17:53:53;;;;;;;2.63;2.63;;;;;;;;;;6389014;27;20294;-68
2023/12/30 17:56:57;;;;;;;3.17;3.07;;;;;;;;;;6389637;27;20283;-70
2023/12/30 18:00:00;;;;;;;3.13;2.93;;;;;;;;;;6388991;27;20286;-68
2023/12/30 18:03:07;;;;;;;2.63;2.63;;;;;;;;;;6393176;27;20306;-68
2023/12/30 18:06:13;;;;;;;3.10;3.00;;;;;;;;;;6389368;27;20295;-69
2023/12/30 18:09:17;;;;;;;2.33;2.33;;;;;;;;;;6383093;27;20299;-68
2023/12/30 18:12:21;;;;;;;3.27;3.10;;;;;;;;;;6389942;27;20298;-68
2023/12/30 18:15:26;;;;;;;3.10;3.00;;;;;;;;;;6388053;27;20301;-67
2023/12/30 18:18:30;;;;;;;3.03;2.93;;;;;;;;;;6388507;27;20290;-68
2023/12/30 18:21:36;;;;;;;3.13;2.93;;;;;;;;;;6388849;27;20295;-69
2023/12/30 18:24:41;;;;;;;3.40;3.10;;;;;;;;;;6388634;27;20311;-68
2023/12/30 18:27:45;;;;;;;2.50;2.50;;;;;;;;;;6388177;27;20291;-68
2023/12/30 18:30:48;;;;;;;2.97;2.77;;;;;;;;;;6389115;27;20296;-68
2023/12/30 18:33:52;;;;;;;2.80;2.70;;;;;;;;;;6387752;27;20298;-68